createdAt,value
2023-03-22T14:11:11.063Z,32.93
2023-03-22T14:59:12.843Z,34.69
2023-03-22T15:11:13.353Z,34.23
2023-03-22T15:23:13.792Z,36.31
2023-03-22T15:35:14.302Z,37.90
2023-03-22T15:47:14.687Z,38.07
2023-03-22T15:59:15.107Z,38.99
2023-03-22T16:11:15.572Z,39.85
2023-03-22T16:23:16.072Z,40.97
2023-03-22T16:35:16.511Z,41.51
2023-03-22T16:47:16.938Z,44.11
2023-03-22T16:59:17.393Z,46.13
2023-03-22T17:11:17.898Z,48.38
2023-03-22T17:23:18.347Z,51.55
2023-03-22T17:35:18.751Z,50.08
2023-03-22T17:47:37.494Z,48.54
2023-03-22T17:59:19.650Z,51.82
2023-03-22T18:11:20.114Z,53.72
2023-03-22T18:23:20.615Z,56.43
2023-03-22T18:35:21.031Z,58.38
2023-03-22T18:47:21.452Z,57.90
2023-03-22T18:59:21.992Z,59.67
2023-03-22T19:11:22.407Z,61.02
2023-03-22T19:23:22.826Z,62.04
2023-03-22T19:35:23.288Z,63.87
2023-03-22T19:47:23.784Z,63.58
2023-03-22T19:59:25.794Z,66.19
2023-03-22T20:11:38.066Z,63.72
2023-03-22T20:23:25.152Z,58.81
2023-03-22T20:35:25.574Z,57.85
2023-03-22T20:47:26.007Z,60.79
2023-03-22T20:59:26.610Z,62.32
2023-03-22T21:11:29.225Z,64.04
2023-03-22T21:23:27.380Z,65.28
2023-03-22T21:35:27.847Z,67.42
2023-03-22T21:47:28.281Z,70.04
2023-03-22T21:59:28.754Z,69.94
2023-03-22T22:11:29.216Z,67.33
2023-03-22T22:23:29.662Z,67.76
2023-03-22T22:35:30.161Z,70.37
2023-03-22T22:47:30.579Z,68.91
2023-03-22T22:59:31.028Z,70.42
2023-03-22T23:11:31.511Z,72.29
2023-03-22T23:23:31.900Z,72.41
2023-03-22T23:35:32.380Z,75.05
2023-03-22T23:47:32.808Z,73.71
2023-03-22T23:59:35.514Z,73.13
